Scout — WCZ2046 — position and weather

sailwx.info

Track history (hours):
 
Tides and Currents Weather Stations Pressure Air Temp Water Temp Dewpoint Dewpoint Depression Visibility Wind Speed Wind Dir Waves Ship Positions

Scout

Owner: Crowley Marine Services, SEATTLE, WA. More information available from US FCC via Universal Licensing System and Coast Guard Vessel Documentation Center.

Last reported at 2017-Oct-18 15:17 UTC. Time now 2017-Oct-23 08:15 UTC.
Position N 32°42' W 117°09'.

; draft 5.6 m.

Type: Tug. MMSI: 366764730.

Date/timePositionNaut miles runAvg speedWind from/ knotsBaromVisibWave heightAir tempDewpointWater temp
2017-Oct-18 15:17N 32°42' W 117°09'0 0.0
2017-Oct-18 14:57N 32°42' W 117°09'1 0.6
2017-Oct-18 13:58N 32°41' W 117°09'2 5.4
2017-Oct-18 13:30N 32°39' W 117°07'1 2.7
2017-Oct-18 13:00N 32°40' W 117°08'2 3.5
2017-Oct-18 12:30N 32°42' W 117°09'0 0.1
2017-Oct-18 11:35N 32°42' W 117°09'0 0.6
2017-Oct-18 11:28N 32°42' W 117°09'0 0.1
2017-Oct-18 10:57N 32°42' W 117°09'0 0.1
2017-Oct-18 10:24N 32°42' W 117°09'0 0.0
2017-Oct-18 10:00N 32°42' W 117°09'0 0.0
2017-Oct-18 08:27N 32°42' W 117°09'0 0.1
2017-Oct-18 07:47N 32°42' W 117°09'0 0.0
2017-Oct-18 06:06N 32°42' W 117°09'0 0.1
2017-Oct-18 05:36N 32°42' W 117°09'0 0.5
2017-Oct-18 05:30N 32°42' W 117°09'0 0.0
2017-Oct-18 04:56N 32°42' W 117°09'0 0.0
2017-Oct-17 15:15N 32°42' W 117°09'0 0.0
2017-Oct-17 15:00N 32°42' W 117°09'0 0.0
2017-Oct-16 13:00N 32°42' W 117°09'0 0.0
2017-Oct-15 13:49N 32°42' W 117°09'3 8.5
2017-Oct-15 13:29N 32°39' W 117°07'0 0.7
2017-Oct-15 12:49N 32°40' W 117°08'2 5.5
2017-Oct-15 12:30N 32°41' W 117°09'1 1.2
2017-Oct-15 11:50N 32°42' W 117°09'0 0.1
2017-Oct-15 11:08N 32°42' W 117°09'0 0.3
2017-Oct-15 10:59N 32°42' W 117°09'0 0.0
2017-Oct-15 10:30N 32°42' W 117°09'0 0.0
2017-Oct-15 09:41N 32°42' W 117°09'0 0.3
2017-Oct-15 09:30N 32°42' W 117°09'0 0.1
2017-Oct-15 09:00N 32°42' W 117°09'0 0.0
2017-Oct-15 08:30N 32°42' W 117°09'0 0.0
2017-Oct-15 06:41N 32°42' W 117°09'0 0.0
2017-Oct-15 06:24N 32°42' W 117°09'0 0.1
2017-Oct-15 05:43N 32°42' W 117°09'0 0.0
2017-Oct-15 05:29N 32°42' W 117°09'0 0.0
2017-Oct-15 05:00N 32°42' W 117°09'0 0.0
2017-Oct-15 03:49N 32°42' W 117°09'0 0.0
2017-Oct-15 01:56N 32°42' W 117°09'0 0.0
2017-Oct-15 01:29N 32°42' W 117°09'0 0.0
2017-Oct-15 00:59N 32°42' W 117°09'0 0.1
2017-Oct-15 00:30N 32°42' W 117°09'0 0.1
2017-Oct-14 23:51N 32°42' W 117°09'0 0.0
2017-Oct-14 23:28N 32°42' W 117°09'0 0.0
2017-Oct-14 23:00N 32°42' W 117°09'0 0.1
2017-Oct-14 22:25N 32°42' W 117°09'0 0.1
2017-Oct-14 21:42N 32°42' W 117°09'0 0.0
2017-Oct-14 21:30N 32°42' W 117°09'0 0.0
2017-Oct-14 16:07N 32°42' W 117°09'0 0.0
2017-Oct-14 15:59N 32°42' W 117°09'0 0.0
2017-Oct-14 11:47N 32°42' W 117°09'0 0.0
2017-Oct-14 10:24N 32°42' W 117°09'0 0.0
2017-Oct-12 21:39N 32°42' W 117°09'1 7.5
2017-Oct-12 21:30N 32°41' W 117°08'2 2.4
2017-Oct-12 20:42N 32°39' W 117°07'2 7.8
2017-Oct-12 20:28N 32°41' W 117°08'1 0.2
2017-Oct-12 13:22N 32°42' W 117°09'3 7.6
2017-Oct-12 12:58N 32°39' W 117°07'1 0.9
2017-Oct-12 12:17N 32°40' W 117°08'2 7.0
2017-Oct-12 12:00N 32°41' W 117°09'0 0.0
2017-Oct-11 23:58N 32°42' W 117°09'3 6.6
2017-Oct-11 23:30N 32°39' W 117°07'2 3.2
2017-Oct-11 22:58N 32°41' W 117°08'1 0.1
2017-Oct-10 20:55N 32°42' W 117°09'0 0.0
2017-Oct-10 16:26N 32°42' W 117°09'0 0.0
2017-Oct-10 15:58N 32°42' W 117°09'0 0.1
2017-Oct-10 15:28N 32°42' W 117°09'0 0.0
2017-Oct-10 13:57N 32°42' W 117°09'0 0.1
2017-Oct-10 13:20N 32°42' W 117°09'0 0.2
2017-Oct-10 13:00N 32°42' W 117°09'0 0.1
2017-Oct-10 12:17N 32°42' W 117°09'0 0.0
2017-Oct-10 11:52N 32°42' W 117°09'0 0.1
2017-Oct-10 11:30N 32°42' W 117°09'0 0.1
2017-Oct-10 10:57N 32°42' W 117°09'0 0.0
2017-Oct-10 10:28N 32°42' W 117°09'0 0.0
2017-Oct-10 09:22N 32°42' W 117°09'0 0.1
2017-Oct-10 09:00N 32°42' W 117°09'0 0.1
2017-Oct-10 08:28N 32°42' W 117°09'0 0.0
2017-Oct-10 07:10N 32°42' W 117°09'0 0.3
2017-Oct-10 07:00N 32°42' W 117°09'0 0.0
2017-Oct-09 19:00N 32°42' W 117°09'0 0.0
2017-Oct-09 18:28N 32°42' W 117°09'0 0.0
2017-Oct-08 23:29N 32°42' W 117°09'1 1.7
2017-Oct-08 22:53N 32°42' W 117°10'  
Track history (hours):
 
Tides and Currents Weather Stations Pressure Air Temp Water Temp Dewpoint Dewpoint Depression Visibility Wind Speed Wind Dir Waves Ship Positions

Scout

Owner: Crowley Marine Services, SEATTLE, WA. More information available from US FCC via Universal Licensing System and Coast Guard Vessel Documentation Center.

Last reported at 2017-Oct-18 15:17 UTC. Time now 2017-Oct-23 08:15 UTC.
Position N 32°42' W 117°09'.

; draft 5.6 m.

Type: Tug. MMSI: 366764730.

Date/timePositionNaut miles runAvg speedWind from/ knotsBaromVisibWave heightAir tempDewpointWater temp
2017-Oct-18 15:17N 32°42' W 117°09'0 0.0
2017-Oct-18 14:57N 32°42' W 117°09'1 0.6
2017-Oct-18 13:58N 32°41' W 117°09'2 5.4
2017-Oct-18 13:30N 32°39' W 117°07'1 2.7
2017-Oct-18 13:00N 32°40' W 117°08'2 3.5
2017-Oct-18 12:30N 32°42' W 117°09'0 0.1
2017-Oct-18 11:35N 32°42' W 117°09'0 0.6
2017-Oct-18 11:28N 32°42' W 117°09'0 0.1
2017-Oct-18 10:57N 32°42' W 117°09'0 0.1
2017-Oct-18 10:24N 32°42' W 117°09'0 0.0
2017-Oct-18 10:00N 32°42' W 117°09'0 0.0
2017-Oct-18 08:27N 32°42' W 117°09'0 0.1
2017-Oct-18 07:47N 32°42' W 117°09'0 0.0
2017-Oct-18 06:06N 32°42' W 117°09'0 0.1
2017-Oct-18 05:36N 32°42' W 117°09'0 0.5
2017-Oct-18 05:30N 32°42' W 117°09'0 0.0
2017-Oct-18 04:56N 32°42' W 117°09'0 0.0
2017-Oct-17 15:15N 32°42' W 117°09'0 0.0
2017-Oct-17 15:00N 32°42' W 117°09'0 0.0
2017-Oct-16 13:00N 32°42' W 117°09'0 0.0
2017-Oct-15 13:49N 32°42' W 117°09'3 8.5
2017-Oct-15 13:29N 32°39' W 117°07'0 0.7
2017-Oct-15 12:49N 32°40' W 117°08'2 5.5
2017-Oct-15 12:30N 32°41' W 117°09'1 1.2
2017-Oct-15 11:50N 32°42' W 117°09'0 0.1
2017-Oct-15 11:08N 32°42' W 117°09'0 0.3
2017-Oct-15 10:59N 32°42' W 117°09'0 0.0
2017-Oct-15 10:30N 32°42' W 117°09'0 0.0
2017-Oct-15 09:41N 32°42' W 117°09'0 0.3
2017-Oct-15 09:30N 32°42' W 117°09'0 0.1
2017-Oct-15 09:00N 32°42' W 117°09'0 0.0
2017-Oct-15 08:30N 32°42' W 117°09'0 0.0
2017-Oct-15 06:41N 32°42' W 117°09'0 0.0
2017-Oct-15 06:24N 32°42' W 117°09'0 0.1
2017-Oct-15 05:43N 32°42' W 117°09'0 0.0
2017-Oct-15 05:29N 32°42' W 117°09'0 0.0
2017-Oct-15 05:00N 32°42' W 117°09'0 0.0
2017-Oct-15 03:49N 32°42' W 117°09'0 0.0
2017-Oct-15 01:56N 32°42' W 117°09'0 0.0
2017-Oct-15 01:29N 32°42' W 117°09'0 0.0
2017-Oct-15 00:59N 32°42' W 117°09'0 0.1
2017-Oct-15 00:30N 32°42' W 117°09'0 0.1
2017-Oct-14 23:51N 32°42' W 117°09'0 0.0
2017-Oct-14 23:28N 32°42' W 117°09'0 0.0
2017-Oct-14 23:00N 32°42' W 117°09'0 0.1
2017-Oct-14 22:25N 32°42' W 117°09'0 0.1
2017-Oct-14 21:42N 32°42' W 117°09'0 0.0
2017-Oct-14 21:30N 32°42' W 117°09'0 0.0
2017-Oct-14 16:07N 32°42' W 117°09'0 0.0
2017-Oct-14 15:59N 32°42' W 117°09'0 0.0
2017-Oct-14 11:47N 32°42' W 117°09'0 0.0
2017-Oct-14 10:24N 32°42' W 117°09'0 0.0
2017-Oct-12 21:39N 32°42' W 117°09'1 7.5
2017-Oct-12 21:30N 32°41' W 117°08'2 2.4
2017-Oct-12 20:42N 32°39' W 117°07'2 7.8
2017-Oct-12 20:28N 32°41' W 117°08'1 0.2
2017-Oct-12 13:22N 32°42' W 117°09'3 7.6
2017-Oct-12 12:58N 32°39' W 117°07'1 0.9
2017-Oct-12 12:17N 32°40' W 117°08'2 7.0
2017-Oct-12 12:00N 32°41' W 117°09'0 0.0
2017-Oct-11 23:58N 32°42' W 117°09'3 6.6
2017-Oct-11 23:30N 32°39' W 117°07'2 3.2
2017-Oct-11 22:58N 32°41' W 117°08'1 0.1
2017-Oct-10 20:55N 32°42' W 117°09'0 0.0
2017-Oct-10 16:26N 32°42' W 117°09'0 0.0
2017-Oct-10 15:58N 32°42' W 117°09'0 0.1
2017-Oct-10 15:28N 32°42' W 117°09'0 0.0
2017-Oct-10 13:57N 32°42' W 117°09'0 0.1
2017-Oct-10 13:20N 32°42' W 117°09'0 0.2
2017-Oct-10 13:00N 32°42' W 117°09'0 0.1
2017-Oct-10 12:17N 32°42' W 117°09'0 0.0
2017-Oct-10 11:52N 32°42' W 117°09'0 0.1
2017-Oct-10 11:30N 32°42' W 117°09'0 0.1
2017-Oct-10 10:57N 32°42' W 117°09'0 0.0
2017-Oct-10 10:28N 32°42' W 117°09'0 0.0
2017-Oct-10 09:22N 32°42' W 117°09'0 0.1
2017-Oct-10 09:00N 32°42' W 117°09'0 0.1
2017-Oct-10 08:28N 32°42' W 117°09'0 0.0
2017-Oct-10 07:10N 32°42' W 117°09'0 0.3
2017-Oct-10 07:00N 32°42' W 117°09'0 0.0
2017-Oct-09 19:00N 32°42' W 117°09'0 0.0
2017-Oct-09 18:28N 32°42' W 117°09'0 0.0
2017-Oct-08 23:29N 32°42' W 117°09'1 1.7
2017-Oct-08 22:53N 32°42' W 117°10'  

Dump ship's entire track history